createdAt,value
2022-12-03T00:01:59.328Z,25.60
2022-12-03T00:04:26.101Z,27.43
2022-12-03T00:06:52.963Z,27.33
2022-12-03T00:09:20.095Z,25.60
2022-12-03T00:11:47.025Z,26.90
2022-12-03T00:14:13.818Z,28.70
2022-12-03T00:16:40.634Z,26.33
2022-12-03T00:19:07.758Z,25.43
2022-12-03T00:21:34.618Z,28.23
2022-12-03T00:24:01.540Z,29.70
2022-12-03T00:26:28.348Z,26.40
2022-12-03T00:28:55.201Z,28.43
2022-12-03T00:31:23.574Z,29.00
2022-12-03T00:33:53.701Z,27.97
2022-12-03T00:36:21.711Z,27.57
2022-12-03T00:38:48.609Z,29.90
2022-12-03T00:41:15.337Z,27.83
2022-12-03T00:43:42.380Z,25.90
2022-12-03T00:46:09.123Z,27.17
2022-12-03T00:48:35.931Z,27.47
2022-12-03T00:51:02.933Z,27.27
2022-12-03T00:53:30.035Z,27.73
2022-12-03T00:55:56.797Z,27.50
2022-12-03T00:58:23.590Z,30.73
2022-12-03T01:00:50.623Z,31.73
2022-12-03T01:03:17.387Z,32.10
2022-12-03T01:05:44.144Z,29.33
2022-12-03T01:08:11.542Z,28.40
2022-12-03T01:10:38.555Z,29.17
2022-12-03T01:13:05.507Z,29.90
2022-12-03T01:15:32.262Z,31.33
2022-12-03T01:17:59.011Z,30.80
2022-12-03T01:20:25.750Z,31.13
2022-12-03T01:22:52.623Z,32.50
2022-12-03T01:25:19.335Z,30.70
2022-12-03T01:27:48.873Z,30.10
2022-12-03T01:30:15.683Z,28.87
2022-12-03T01:32:42.588Z,30.93
2022-12-03T01:35:09.644Z,29.13
2022-12-03T01:37:36.407Z,30.07
2022-12-03T01:40:04.289Z,29.80
2022-12-03T01:42:35.413Z,31.80
2022-12-03T01:45:03.101Z,28.83
2022-12-03T01:47:35.841Z,29.77
2022-12-03T01:50:11.374Z,32.10
2022-12-03T01:52:39.281Z,29.90
2022-12-03T01:55:12.891Z,29.73
2022-12-03T01:57:54.598Z,29.37
2022-12-03T02:00:24.476Z,29.17
2022-12-03T02:03:01.124Z,33.53
2022-12-03T02:05:33.253Z,32.73
2022-12-03T02:08:00.525Z,25.70
2022-12-03T02:10:37.628Z,30.77
2022-12-03T02:13:08.805Z,34.53
2022-12-03T02:15:39.494Z,32.93
2022-12-03T02:18:08.737Z,30.40
2022-12-03T02:20:42.435Z,31.00
2022-12-03T02:23:16.653Z,31.87
2022-12-03T02:25:43.495Z,33.50
2022-12-03T02:28:10.759Z,32.00
2022-12-03T02:30:37.639Z,30.87
2022-12-03T02:33:07.661Z,31.83
2022-12-03T02:35:36.320Z,35.13
2022-12-03T02:38:15.544Z,31.80
2022-12-03T02:40:43.826Z,37.37
2022-12-03T02:43:11.405Z,31.80
2022-12-03T02:45:45.058Z,38.17
2022-12-03T02:48:16.264Z,36.13
2022-12-03T02:50:50.337Z,34.23
2022-12-03T02:53:24.548Z,37.23
2022-12-03T02:55:56.425Z,35.30
2022-12-03T02:58:34.658Z,36.33
2022-12-03T03:01:03.657Z,32.53
2022-12-03T03:03:32.395Z,32.67
2022-12-03T03:06:11.623Z,31.87
2022-12-03T03:08:39.860Z,33.27
2022-12-03T03:11:06.730Z,32.37
2022-12-03T03:13:35.399Z,34.73
2022-12-03T03:16:06.813Z,35.73
2022-12-03T03:18:35.136Z,37.90
2022-12-03T03:21:02.974Z,33.13
2022-12-03T03:23:29.685Z,36.43
2022-12-03T03:26:08.266Z,33.63
2022-12-03T03:28:38.044Z,32.43
2022-12-03T03:31:06.561Z,37.70
2022-12-03T03:33:33.663Z,42.53
2022-12-03T03:36:01.042Z,33.00
2022-12-03T03:38:29.412Z,34.03
2022-12-03T03:40:58.197Z,36.60
2022-12-03T03:43:25.657Z,42.10
2022-12-03T03:45:54.004Z,37.60
2022-12-03T03:48:22.006Z,36.83
2022-12-03T03:50:52.471Z,38.13
2022-12-03T03:53:21.362Z,35.77
2022-12-03T03:55:48.541Z,33.67
2022-12-03T03:58:16.006Z,36.77
2022-12-03T04:00:46.992Z,32.43
2022-12-03T04:03:14.447Z,35.07
2022-12-03T04:05:41.311Z,37.33
2022-12-03T04:08:08.127Z,34.43
2022-12-03T04:10:53.560Z,33.03
2022-12-03T04:13:20.269Z,37.07
2022-12-03T04:15:47.089Z,37.30
2022-12-03T04:18:32.718Z,38.20
2022-12-03T04:21:19.341Z,32.30
2022-12-03T04:23:46.179Z,35.37
2022-12-03T04:26:31.578Z,36.17
2022-12-03T04:28:58.589Z,32.37
2022-12-03T04:31:44.004Z,35.10
2022-12-03T04:34:29.686Z,35.43
2022-12-03T04:36:59.416Z,28.50
2022-12-03T04:39:26.100Z,32.23
2022-12-03T04:41:52.993Z,34.93
2022-12-03T04:44:38.109Z,33.43
2022-12-03T04:47:15.939Z,33.13
2022-12-03T04:49:45.491Z,30.03
2022-12-03T04:52:13.853Z,30.60
2022-12-03T04:54:41.465Z,32.70
2022-12-03T04:57:09.862Z,30.23
2022-12-03T04:59:37.511Z,31.77
2022-12-03T05:02:08.415Z,30.43
2022-12-03T05:04:38.205Z,30.10
2022-12-03T05:07:05.002Z,27.97
2022-12-03T05:09:31.821Z,29.30
2022-12-03T05:11:58.619Z,32.30
2022-12-03T05:14:25.332Z,28.63
2022-12-03T05:16:52.149Z,28.47
2022-12-03T05:19:18.883Z,28.17
2022-12-03T05:21:45.619Z,28.03
2022-12-03T05:24:12.406Z,27.80
2022-12-03T05:26:39.136Z,30.30
2022-12-03T05:29:08.845Z,27.13
2022-12-03T05:31:35.673Z,29.57
2022-12-03T05:34:02.373Z,32.90
2022-12-03T05:36:29.183Z,28.73
2022-12-03T05:38:55.913Z,31.40
2022-12-03T05:41:41.558Z,31.40
2022-12-03T05:44:08.305Z,29.93
2022-12-03T05:46:35.051Z,30.60
2022-12-03T05:49:01.858Z,29.57
2022-12-03T05:51:28.685Z,34.87
2022-12-03T05:53:55.354Z,30.60
2022-12-03T05:56:22.166Z,32.63
2022-12-03T05:58:49.015Z,35.00
2022-12-03T06:01:16.027Z,28.33
2022-12-03T06:03:42.927Z,32.40
2022-12-03T06:06:09.714Z,31.23
2022-12-03T06:08:36.449Z,33.00
2022-12-03T06:11:03.234Z,34.00
2022-12-03T06:13:30.089Z,32.20
2022-12-03T06:15:56.979Z,29.23
2022-12-03T06:18:23.816Z,35.37
2022-12-03T06:20:50.584Z,34.77
2022-12-03T06:23:17.339Z,32.67
2022-12-03T06:25:44.051Z,28.50
2022-12-03T06:28:10.890Z,33.57
2022-12-03T06:30:37.563Z,34.10
2022-12-03T06:33:04.589Z,38.90
2022-12-03T06:35:31.912Z,32.80
2022-12-03T06:37:58.738Z,33.90
2022-12-03T06:40:25.670Z,36.93
2022-12-03T06:42:52.808Z,33.30
2022-12-03T06:45:19.535Z,32.40
2022-12-03T06:47:46.352Z,34.63
2022-12-03T06:50:13.936Z,32.00
2022-12-03T06:52:40.676Z,36.93
2022-12-03T06:55:08.211Z,33.40
2022-12-03T06:57:35.071Z,34.23
2022-12-03T07:00:02.329Z,32.70
2022-12-03T07:02:32.075Z,34.07
2022-12-03T07:04:59.012Z,35.60
2022-12-03T07:07:26.022Z,34.97
2022-12-03T07:09:52.724Z,38.50
2022-12-03T07:12:19.460Z,33.50
2022-12-03T07:14:46.216Z,33.37
2022-12-03T07:17:12.940Z,35.50
2022-12-03T07:19:39.743Z,31.63
2022-12-03T07:22:09.187Z,37.17
2022-12-03T07:24:35.884Z,34.57
2022-12-03T07:27:02.802Z,37.70
2022-12-03T07:29:29.575Z,34.53
2022-12-03T07:31:56.465Z,35.43
2022-12-03T07:34:23.550Z,30.60
2022-12-03T07:36:52.705Z,35.73
2022-12-03T07:39:19.397Z,32.07
2022-12-03T07:41:46.180Z,33.40
2022-12-03T07:44:14.704Z,35.97
2022-12-03T07:46:42.676Z,34.80
2022-12-03T07:49:09.556Z,30.17
2022-12-03T07:51:36.312Z,36.13
2022-12-03T07:54:03.289Z,35.87
2022-12-03T07:56:30.407Z,33.30
2022-12-03T07:58:57.193Z,35.40
2022-12-03T08:01:24.009Z,30.90
2022-12-03T08:03:50.863Z,33.20
2022-12-03T08:06:17.649Z,32.13
2022-12-03T08:08:44.441Z,36.37
2022-12-03T08:11:20.106Z,33.40
2022-12-03T08:13:46.986Z,35.03
2022-12-03T08:16:20.086Z,32.13
2022-12-03T08:18:48.517Z,34.23
2022-12-03T08:21:17.849Z,40.07
2022-12-03T08:23:47.504Z,30.77
2022-12-03T08:26:25.609Z,34.40
2022-12-03T08:28:53.465Z,38.37
2022-12-03T08:31:28.025Z,34.80
2022-12-03T08:34:06.465Z,37.07
2022-12-03T08:36:33.793Z,33.33
2022-12-03T08:39:06.931Z,36.60
2022-12-03T08:41:54.679Z,35.33
2022-12-03T08:44:36.027Z,39.33
2022-12-03T08:47:16.414Z,37.87
2022-12-03T08:49:54.973Z,36.47
2022-12-03T08:52:26.671Z,37.40
2022-12-03T08:54:55.599Z,36.80
2022-12-03T08:57:23.767Z,37.37
2022-12-03T08:59:54.458Z,35.73
2022-12-03T09:02:31.211Z,44.00
2022-12-03T09:04:58.387Z,36.73
2022-12-03T09:07:25.136Z,36.90
2022-12-03T09:09:51.935Z,39.50
2022-12-03T09:12:18.775Z,39.33
2022-12-03T09:14:45.541Z,47.43
2022-12-03T09:17:12.359Z,38.13
2022-12-03T09:19:46.197Z,44.27
2022-12-03T09:22:13.411Z,46.30
2022-12-03T09:24:40.119Z,43.17
2022-12-03T09:27:06.973Z,46.83
2022-12-03T09:29:33.776Z,45.87
2022-12-03T09:32:00.602Z,45.87
2022-12-03T09:34:27.467Z,43.30
2022-12-03T09:36:54.529Z,44.07
2022-12-03T09:39:23.781Z,43.90
2022-12-03T09:41:50.618Z,46.03
2022-12-03T09:44:18.355Z,46.80
2022-12-03T09:46:46.682Z,39.50
2022-12-03T09:49:17.819Z,43.50
2022-12-03T09:51:45.729Z,43.53
2022-12-03T09:54:26.290Z,40.47
2022-12-03T09:56:55.726Z,43.60
2022-12-03T09:59:26.219Z,37.80
2022-12-03T10:01:54.234Z,44.23
2022-12-03T10:04:21.449Z,45.20
2022-12-03T10:06:48.519Z,48.53
2022-12-03T10:09:22.300Z,44.10
2022-12-03T10:11:49.248Z,43.80
2022-12-03T10:14:18.828Z,42.07
2022-12-03T10:16:46.155Z,45.43
2022-12-03T10:19:35.719Z,45.90
2022-12-03T10:22:02.548Z,46.50
2022-12-03T10:24:34.735Z,46.83
2022-12-03T10:27:04.969Z,39.43
2022-12-03T10:29:34.906Z,38.83
2022-12-03T10:32:04.835Z,43.77
2022-12-03T10:34:37.074Z,45.50
2022-12-03T10:37:14.528Z,46.83
2022-12-03T10:40:01.882Z,44.37
2022-12-03T10:42:33.439Z,51.03
2022-12-03T10:45:16.104Z,47.43
2022-12-03T10:47:44.770Z,50.17
2022-12-03T10:50:18.070Z,42.67
2022-12-03T10:52:48.805Z,45.37
2022-12-03T10:55:16.451Z,38.53
2022-12-03T10:57:45.960Z,43.60
2022-12-03T11:00:22.768Z,42.47
2022-12-03T11:02:56.388Z,45.67
2022-12-03T11:05:27.347Z,49.10
2022-12-03T11:07:54.559Z,42.43
2022-12-03T11:10:21.924Z,44.27
2022-12-03T11:13:25.987Z,47.27
2022-12-03T11:15:53.384Z,42.90
2022-12-03T11:18:55.294Z,45.07
2022-12-03T11:21:22.235Z,50.30
2022-12-03T11:23:51.781Z,49.73
2022-12-03T11:26:38.445Z,55.67
2022-12-03T11:29:13.349Z,46.87
2022-12-03T11:31:48.316Z,48.73
2022-12-03T11:34:21.054Z,48.03
2022-12-03T11:37:12.416Z,46.50
2022-12-03T11:39:45.166Z,45.57
2022-12-03T11:42:27.077Z,40.27
2022-12-03T11:45:05.713Z,42.67
2022-12-03T11:47:40.277Z,45.20
2022-12-03T11:50:40.960Z,39.00
2022-12-03T11:53:23.607Z,37.13
2022-12-03T11:56:08.590Z,41.27
2022-12-03T11:58:38.384Z,35.00
2022-12-03T12:01:07.435Z,33.53
2022-12-03T12:03:41.361Z,33.90
2022-12-03T12:06:13.890Z,35.60
2022-12-03T12:08:49.770Z,33.03
2022-12-03T12:11:18.107Z,36.23
2022-12-03T12:13:57.005Z,38.10
2022-12-03T12:16:45.897Z,34.47
2022-12-03T12:19:36.114Z,29.20
2022-12-03T12:22:25.332Z,34.07
2022-12-03T12:24:55.809Z,35.33
2022-12-03T12:27:45.192Z,33.33
2022-12-03T12:30:17.523Z,33.90
2022-12-03T12:32:50.453Z,40.30
2022-12-03T12:35:30.791Z,39.13
2022-12-03T12:38:10.958Z,37.57
2022-12-03T12:40:40.125Z,38.93
2022-12-03T12:43:24.090Z,38.77
2022-12-03T12:45:54.146Z,38.97
2022-12-03T12:48:31.540Z,38.30
2022-12-03T12:51:06.150Z,36.17
2022-12-03T12:53:35.238Z,36.87
2022-12-03T12:56:22.309Z,36.30
2022-12-03T12:58:49.129Z,32.87
2022-12-03T13:01:26.188Z,37.33
2022-12-03T13:03:53.623Z,40.73
2022-12-03T13:06:26.835Z,39.20
2022-12-03T13:08:54.988Z,41.60
2022-12-03T13:11:36.984Z,44.00
2022-12-03T13:14:23.958Z,40.47
2022-12-03T13:16:53.009Z,42.50
2022-12-03T13:19:28.008Z,40.00
2022-12-03T13:21:56.894Z,41.70
2022-12-03T13:24:34.518Z,39.40
2022-12-03T13:27:26.015Z,36.60
2022-12-03T13:30:00.871Z,40.10
2022-12-03T13:32:38.264Z,43.67
2022-12-03T13:35:24.363Z,39.23
2022-12-03T13:37:51.165Z,38.10
2022-12-03T13:40:23.979Z,41.50
2022-12-03T13:42:52.722Z,39.67
2022-12-03T13:45:19.362Z,39.30
2022-12-03T13:47:48.694Z,33.37
2022-12-03T13:50:33.847Z,35.90
2022-12-03T13:53:23.101Z,36.23
2022-12-03T13:56:18.426Z,40.73
2022-12-03T13:58:45.203Z,37.93
2022-12-03T14:01:11.964Z,40.10
2022-12-03T14:03:38.927Z,41.17
2022-12-03T14:06:06.343Z,39.33
2022-12-03T14:08:33.191Z,41.77
2022-12-03T14:11:01.366Z,41.50
2022-12-03T14:13:28.279Z,46.77
2022-12-03T14:15:55.364Z,41.20
2022-12-03T14:18:22.290Z,36.93
2022-12-03T14:20:51.183Z,41.17
2022-12-03T14:23:17.886Z,44.37
2022-12-03T14:25:44.610Z,44.60
2022-12-03T14:28:11.602Z,45.23
2022-12-03T14:30:38.366Z,39.57
2022-12-03T14:33:05.155Z,49.50
2022-12-03T14:35:32.007Z,39.20
2022-12-03T14:37:58.724Z,43.50
2022-12-03T14:40:26.074Z,44.17
2022-12-03T14:42:52.846Z,40.57
2022-12-03T14:45:20.771Z,45.40
2022-12-03T14:47:47.712Z,45.87
2022-12-03T14:50:14.779Z,48.83
2022-12-03T14:52:41.600Z,44.60
2022-12-03T14:55:08.870Z,50.13
2022-12-03T14:57:37.759Z,48.53
2022-12-03T15:00:06.729Z,42.40
2022-12-03T15:02:36.773Z,49.20
2022-12-03T15:05:04.351Z,49.23
2022-12-03T15:07:34.773Z,49.80
2022-12-03T15:10:04.817Z,51.37
2022-12-03T15:12:31.634Z,48.93
2022-12-03T15:14:58.464Z,45.37
2022-12-03T15:17:31.225Z,44.70
2022-12-03T15:20:01.910Z,45.23
2022-12-03T15:22:28.656Z,48.30
2022-12-03T15:24:55.413Z,44.63
2022-12-03T15:27:25.409Z,47.97
2022-12-03T15:29:52.358Z,51.63
2022-12-03T15:32:19.244Z,46.03
2022-12-03T15:34:46.227Z,48.30
2022-12-03T15:37:14.828Z,46.60
2022-12-03T15:39:48.113Z,48.97
2022-12-03T15:42:15.606Z,53.67
2022-12-03T15:44:42.286Z,52.67
2022-12-03T15:47:09.027Z,47.20
2022-12-03T15:49:35.802Z,45.33
2022-12-03T15:52:02.491Z,45.80
2022-12-03T15:54:29.166Z,46.90
2022-12-03T15:56:57.636Z,49.40
2022-12-03T15:59:24.799Z,47.00
2022-12-03T16:01:51.678Z,44.30
2022-12-03T16:04:18.546Z,50.67
2022-12-03T16:06:45.323Z,50.43
2022-12-03T16:09:12.150Z,45.53
2022-12-03T16:11:39.078Z,47.20
2022-12-03T16:14:08.858Z,43.90
2022-12-03T16:16:38.347Z,47.30
2022-12-03T16:19:07.554Z,46.90
2022-12-03T16:21:37.017Z,43.13
2022-12-03T16:24:04.267Z,43.27
2022-12-03T16:26:31.308Z,42.30
2022-12-03T16:28:58.000Z,43.70
2022-12-03T16:31:24.846Z,48.00
2022-12-03T16:33:51.706Z,49.87
2022-12-03T16:36:18.465Z,42.37
2022-12-03T16:38:45.272Z,47.40
2022-12-03T16:41:12.070Z,46.43
2022-12-03T16:43:39.019Z,44.03
2022-12-03T16:46:19.149Z,48.33
2022-12-03T16:48:47.490Z,49.03
2022-12-03T16:51:14.327Z,45.10
2022-12-03T16:53:41.319Z,41.30
2022-12-03T16:56:08.792Z,46.60
2022-12-03T16:58:35.934Z,44.37
2022-12-03T17:01:02.701Z,45.97
2022-12-03T17:03:33.841Z,44.90
2022-12-03T17:06:01.689Z,46.57
2022-12-03T17:08:28.514Z,46.67
2022-12-03T17:10:58.158Z,43.77
2022-12-03T17:13:24.966Z,43.20
2022-12-03T17:15:54.331Z,45.53
2022-12-03T17:18:22.559Z,42.37
2022-12-03T17:20:49.417Z,41.67
2022-12-03T17:23:17.658Z,43.53
2022-12-03T17:25:44.441Z,43.87
2022-12-03T17:28:11.390Z,43.17
2022-12-03T17:30:38.099Z,43.93
2022-12-03T17:33:05.224Z,39.37
2022-12-03T17:35:31.994Z,42.33
2022-12-03T17:37:59.101Z,40.50
2022-12-03T17:40:28.796Z,43.83
2022-12-03T17:42:55.673Z,48.87
2022-12-03T17:45:22.406Z,43.63
2022-12-03T17:47:49.086Z,49.90
2022-12-03T17:50:15.842Z,42.77
2022-12-03T17:52:42.592Z,47.80
2022-12-03T17:55:12.169Z,43.63
2022-12-03T17:57:41.449Z,45.90
2022-12-03T18:00:09.076Z,47.27
2022-12-03T18:02:56.610Z,46.70
2022-12-03T18:05:23.314Z,54.57
2022-12-03T18:07:50.909Z,51.23
2022-12-03T18:10:17.811Z,46.00
2022-12-03T18:12:44.658Z,44.77
2022-12-03T18:15:11.674Z,46.10
2022-12-03T18:17:38.376Z,47.57
2022-12-03T18:20:06.001Z,48.07
2022-12-03T18:22:33.379Z,44.03
2022-12-03T18:25:00.502Z,45.53
2022-12-03T18:27:29.905Z,47.77
2022-12-03T18:29:57.145Z,51.10
2022-12-03T18:32:31.511Z,54.37
2022-12-03T18:34:58.371Z,53.77
2022-12-03T18:37:29.427Z,53.23
2022-12-03T18:39:57.571Z,53.60
2022-12-03T18:42:25.058Z,56.83
2022-12-03T18:44:54.435Z,46.57
2022-12-03T18:47:24.408Z,49.67
2022-12-03T18:49:54.669Z,58.03
2022-12-03T18:52:24.999Z,55.50
2022-12-03T18:54:52.055Z,53.67
2022-12-03T18:57:21.753Z,49.93
2022-12-03T18:59:48.632Z,51.77
2022-12-03T19:05:08.616Z,50.73
2022-12-03T19:07:35.530Z,54.27
2022-12-03T19:10:03.152Z,50.13
2022-12-03T19:12:31.244Z,53.67
2022-12-03T19:14:58.060Z,50.30
2022-12-03T19:17:26.944Z,52.33
2022-12-03T19:19:54.085Z,52.90
2022-12-03T19:22:21.337Z,51.67
2022-12-03T19:24:48.012Z,58.37
2022-12-03T19:27:15.009Z,58.50
2022-12-03T19:29:41.822Z,59.97
2022-12-03T19:32:08.995Z,57.50
2022-12-03T19:34:35.951Z,58.23
2022-12-03T19:37:02.752Z,58.00
2022-12-03T19:39:29.640Z,59.63
2022-12-03T19:41:56.371Z,56.90
2022-12-03T19:44:23.241Z,57.57
2022-12-03T19:46:50.354Z,57.53
2022-12-03T19:49:21.006Z,62.23
2022-12-03T19:51:48.521Z,61.33
2022-12-03T19:54:18.665Z,56.27
2022-12-03T19:56:51.581Z,59.13
2022-12-03T19:59:18.387Z,66.53
2022-12-03T20:01:45.235Z,62.53
2022-12-03T20:04:12.721Z,63.33
2022-12-03T20:06:39.811Z,69.43
2022-12-03T20:09:12.152Z,62.33
2022-12-03T20:11:40.786Z,59.27
2022-12-03T20:14:10.557Z,68.33
2022-12-03T20:16:37.561Z,66.17
2022-12-03T20:19:07.261Z,69.83
2022-12-03T20:21:35.897Z,73.63
2022-12-03T20:24:03.626Z,72.63
2022-12-03T20:26:30.480Z,73.00
2022-12-03T20:29:00.482Z,66.03
2022-12-03T20:31:29.618Z,59.63
2022-12-03T20:34:01.864Z,66.83
2022-12-03T20:36:31.661Z,63.00
2022-12-03T20:39:05.941Z,70.37
2022-12-03T20:41:35.175Z,64.27
2022-12-03T20:44:03.121Z,70.47
2022-12-03T20:46:31.545Z,65.67
2022-12-03T20:48:58.967Z,62.20
2022-12-03T20:51:30.386Z,72.77
2022-12-03T20:53:58.817Z,68.27
2022-12-03T20:56:31.851Z,68.87
2022-12-03T20:59:07.475Z,66.60
2022-12-03T21:01:38.801Z,64.73
2022-12-03T21:04:07.603Z,59.50
2022-12-03T21:06:36.902Z,66.20
2022-12-03T21:09:06.145Z,70.47
2022-12-03T21:11:35.882Z,57.60
2022-12-03T21:14:04.294Z,66.07
2022-12-03T21:17:05.893Z,68.23
2022-12-03T21:19:21.909Z,61.40
2022-12-03T21:21:49.189Z,60.70
2022-12-03T21:24:15.987Z,68.77
2022-12-03T21:26:42.754Z,61.87
2022-12-03T21:29:09.645Z,60.33
2022-12-03T21:31:38.451Z,64.43
2022-12-03T21:34:05.322Z,64.80
2022-12-03T21:36:32.473Z,60.27
2022-12-03T21:38:59.336Z,62.30
2022-12-03T21:41:26.538Z,63.23
2022-12-03T21:43:53.320Z,71.83
2022-12-03T21:47:11.823Z,59.73
2022-12-03T21:49:07.271Z,59.77
2022-12-03T21:51:34.109Z,64.53
2022-12-03T21:54:01.004Z,60.47
2022-12-03T21:56:30.412Z,64.37
2022-12-03T21:58:57.336Z,69.33
2022-12-03T22:01:25.038Z,61.77
2022-12-03T22:03:52.186Z,61.60
2022-12-03T22:06:22.424Z,69.43
2022-12-03T22:08:49.724Z,54.90
2022-12-03T22:11:20.102Z,64.93
2022-12-03T22:13:47.266Z,69.57
2022-12-03T22:16:16.998Z,68.73
2022-12-03T22:18:44.082Z,63.90
2022-12-03T22:21:14.810Z,68.23
2022-12-03T22:23:41.602Z,61.60
2022-12-03T22:26:12.545Z,63.53
2022-12-03T22:28:45.537Z,71.10
2022-12-03T22:31:14.167Z,62.27
2022-12-03T22:33:41.248Z,61.30
2022-12-03T22:36:16.421Z,67.00
2022-12-03T22:38:46.691Z,62.73
2022-12-03T22:41:14.545Z,63.03
2022-12-03T22:43:41.293Z,62.80
2022-12-03T22:46:12.876Z,60.20
2022-12-03T22:48:41.822Z,63.67
2022-12-03T22:51:18.655Z,65.00
2022-12-03T22:53:45.491Z,62.83
2022-12-03T22:56:12.953Z,58.60
2022-12-03T22:58:43.310Z,66.17
2022-12-03T23:01:19.228Z,66.87
2022-12-03T23:03:46.106Z,66.37
2022-12-03T23:06:13.088Z,63.40
2022-12-03T23:08:39.959Z,64.07
2022-12-03T23:11:07.428Z,61.90
2022-12-03T23:13:35.291Z,59.47
2022-12-03T23:16:02.154Z,61.17
2022-12-03T23:18:29.061Z,65.03
2022-12-03T23:21:00.206Z,65.40
2022-12-03T23:23:28.073Z,64.63
2022-12-03T23:26:01.022Z,66.93
2022-12-03T23:28:29.618Z,65.20
2022-12-03T23:30:57.530Z,68.20
2022-12-03T23:33:25.072Z,61.83
2022-12-03T23:35:51.894Z,62.90
2022-12-03T23:38:18.905Z,65.30
2022-12-03T23:40:48.228Z,62.43
2022-12-03T23:43:15.596Z,64.40
2022-12-03T23:45:42.357Z,62.27
2022-12-03T23:48:09.204Z,68.83
2022-12-03T23:50:39.541Z,62.23
2022-12-03T23:53:06.277Z,64.93
2022-12-03T23:55:33.617Z,71.63
2022-12-03T23:58:03.285Z,65.10
